createdAt,value
2024-05-09T00:00:36.228Z,24.08
2024-05-09T00:03:10.740Z,25.30
2024-05-09T00:05:41.561Z,25.58
2024-05-09T00:08:13.869Z,22.33
2024-05-09T00:10:43.423Z,28.42
2024-05-09T00:13:13.149Z,25.15
2024-05-09T00:15:42.624Z,22.63
2024-05-09T00:18:12.253Z,22.23
2024-05-09T00:20:41.916Z,25.17
2024-05-09T00:23:14.386Z,28.67
2024-05-09T00:25:45.178Z,30.23
2024-05-09T00:28:14.826Z,25.65
2024-05-09T00:30:44.241Z,26.88
2024-05-09T00:33:13.836Z,25.58
2024-05-09T00:35:44.056Z,31.17
2024-05-09T00:38:16.150Z,26.65
2024-05-09T00:43:15.532Z,24.73
2024-05-09T00:45:45.135Z,30.98
2024-05-09T00:48:17.746Z,26.73
2024-05-09T00:50:50.642Z,28.55
2024-05-09T00:53:22.614Z,29.95
2024-05-09T00:55:52.083Z,23.55
2024-05-09T00:58:23.461Z,26.13
2024-05-09T01:00:53.103Z,26.15
2024-05-09T01:03:23.015Z,34.65
2024-05-09T01:05:52.676Z,25.25
2024-05-09T01:08:24.699Z,26.20
2024-05-09T01:10:54.169Z,23.27
2024-05-09T01:13:23.528Z,75.60
2024-05-09T01:15:54.047Z,29.50
2024-05-09T01:18:23.641Z,27.35
2024-05-09T01:20:53.167Z,21.50
2024-05-09T01:23:25.252Z,22.23
2024-05-09T01:28:23.773Z,24.05
2024-05-09T01:30:53.116Z,22.02
2024-05-09T01:33:22.701Z,24.67
2024-05-09T01:35:52.125Z,25.67
2024-05-09T01:38:21.555Z,25.38
2024-05-09T01:40:56.386Z,23.90
2024-05-09T01:43:25.839Z,21.52
2024-05-09T01:45:55.686Z,23.83
2024-05-09T01:48:25.255Z,22.58
2024-05-09T01:50:54.743Z,23.85
2024-05-09T01:53:24.186Z,25.38
2024-05-09T01:55:56.400Z,22.40
2024-05-09T01:58:25.775Z,21.98
2024-05-09T02:00:55.353Z,25.58
2024-05-09T02:03:24.989Z,21.42
2024-05-09T02:05:54.387Z,25.00
2024-05-09T02:08:24.195Z,26.73
2024-05-09T02:10:56.416Z,25.17
2024-05-09T02:13:25.950Z,21.08
2024-05-09T02:15:55.428Z,23.77
2024-05-09T02:18:25.014Z,23.50
2024-05-09T02:20:54.632Z,24.58
2024-05-09T02:23:24.164Z,39.53
2024-05-09T02:25:56.338Z,30.13
2024-05-09T02:28:25.845Z,25.60
2024-05-09T02:30:55.393Z,23.90
2024-05-09T02:33:22.628Z,26.27
2024-05-09T02:35:52.123Z,25.10
2024-05-09T02:38:18.985Z,26.58
2024-05-09T02:40:48.449Z,22.50
2024-05-09T02:43:17.873Z,24.42
2024-05-09T02:45:47.345Z,27.40
2024-05-09T02:48:14.527Z,21.77
2024-05-09T02:50:44.705Z,22.35
2024-05-09T02:53:12.361Z,20.70
2024-05-09T02:55:42.803Z,48.08
2024-05-09T02:58:10.386Z,25.83
2024-05-09T03:00:43.179Z,24.27
2024-05-09T03:03:12.601Z,22.75
2024-05-09T03:05:44.536Z,25.98
2024-05-09T03:08:11.970Z,22.58
2024-05-09T03:10:41.547Z,21.92
2024-05-09T03:13:08.537Z,27.85
2024-05-09T03:15:38.200Z,26.75
2024-05-09T03:18:08.253Z,24.20
2024-05-09T03:20:38.273Z,23.08
2024-05-09T03:23:06.322Z,24.15
2024-05-09T03:25:36.164Z,26.40
2024-05-09T03:28:02.925Z,27.27
2024-05-09T03:30:40.023Z,23.50
2024-05-09T03:33:13.819Z,26.25
2024-05-09T03:38:13.355Z,30.92
2024-05-09T03:40:47.022Z,23.15
2024-05-09T03:43:16.671Z,22.08
2024-05-09T03:45:43.475Z,22.13
2024-05-09T03:48:15.954Z,26.33
2024-05-09T03:50:43.048Z,23.13
2024-05-09T03:53:13.503Z,29.50
2024-05-09T03:55:40.855Z,25.85
2024-05-09T03:58:13.020Z,25.30
2024-05-09T04:00:40.454Z,27.75
2024-05-09T04:03:12.210Z,21.88
2024-05-09T04:05:44.225Z,22.95
2024-05-09T04:08:14.450Z,25.95
2024-05-09T04:10:41.362Z,21.55
2024-05-09T04:13:10.961Z,25.98
2024-05-09T04:15:37.772Z,20.58
2024-05-09T04:18:07.420Z,22.55
2024-05-09T04:20:38.946Z,20.80
2024-05-09T04:23:13.988Z,24.95
2024-05-09T04:25:41.735Z,24.95
2024-05-09T04:28:11.205Z,23.95
2024-05-09T04:30:40.677Z,24.15
2024-05-09T04:33:13.302Z,25.85
2024-05-09T04:35:42.156Z,22.52
2024-05-09T04:38:15.308Z,24.48
2024-05-09T04:40:42.743Z,20.50
2024-05-09T04:43:17.352Z,20.85
2024-05-09T04:45:44.306Z,20.45
2024-05-09T04:48:14.039Z,21.05
2024-05-09T04:50:41.262Z,20.00
2024-05-09T04:53:11.766Z,21.02
2024-05-09T04:55:41.495Z,21.05
2024-05-09T04:58:11.596Z,23.40
2024-05-09T05:00:39.742Z,20.20
2024-05-09T05:03:13.677Z,24.77
2024-05-09T05:05:42.771Z,18.38
2024-05-09T05:08:14.089Z,21.27
2024-05-09T05:10:44.074Z,21.67
2024-05-09T05:13:23.840Z,20.80
2024-05-09T05:15:53.834Z,19.63
2024-05-09T05:18:24.035Z,18.08
2024-05-09T05:20:51.376Z,21.92
2024-05-09T05:23:21.858Z,22.77
2024-05-09T05:25:53.088Z,22.05
2024-05-09T05:28:23.100Z,22.00
2024-05-09T05:30:50.251Z,21.00
2024-05-09T05:33:22.386Z,21.50
2024-05-09T05:35:50.205Z,25.13
2024-05-09T05:38:22.866Z,20.75
2024-05-09T05:40:57.271Z,23.67
2024-05-09T05:43:26.838Z,22.80
2024-05-09T05:45:53.549Z,21.88
2024-05-09T05:48:23.185Z,19.52
2024-05-09T05:50:50.139Z,22.60
2024-05-09T05:53:19.657Z,25.13
2024-05-09T05:55:46.544Z,22.65
2024-05-09T05:58:20.272Z,23.20
2024-05-09T06:00:47.176Z,20.70
2024-05-09T06:03:16.692Z,23.80
2024-05-09T06:05:45.666Z,24.92
2024-05-09T06:08:16.132Z,23.90
2024-05-09T06:10:42.977Z,23.75
2024-05-09T06:13:13.836Z,20.65
2024-05-09T06:15:44.077Z,23.02
2024-05-09T06:18:13.858Z,23.17
2024-05-09T06:20:42.361Z,22.73
2024-05-09T06:23:13.284Z,21.65
2024-05-09T06:25:40.457Z,20.50
2024-05-09T06:28:09.756Z,21.90
2024-05-09T06:30:40.472Z,24.23
2024-05-09T06:33:16.150Z,21.48
2024-05-09T06:35:43.720Z,20.50
2024-05-09T06:38:13.383Z,20.85
2024-05-09T06:40:42.383Z,22.60
2024-05-09T06:43:13.825Z,20.58
2024-05-09T06:45:40.873Z,20.92
2024-05-09T06:48:11.423Z,19.85
2024-05-09T06:50:41.248Z,17.95
2024-05-09T06:53:10.745Z,18.13
2024-05-09T06:55:37.822Z,14.73
2024-05-09T06:58:09.121Z,17.55
2024-05-09T07:00:39.620Z,14.77
2024-05-09T07:03:12.017Z,15.68
2024-05-09T07:05:43.201Z,15.70
2024-05-09T07:08:13.027Z,13.77
2024-05-09T07:10:39.828Z,12.60
2024-05-09T07:13:10.747Z,11.77
2024-05-09T07:15:37.544Z,11.65
2024-05-09T07:18:12.775Z,9.85
2024-05-09T07:20:42.661Z,9.30
2024-05-09T07:23:12.766Z,11.23
2024-05-09T07:25:40.413Z,9.95
2024-05-09T07:28:12.826Z,10.07
2024-05-09T07:30:39.611Z,9.30
2024-05-09T07:33:09.288Z,15.00
2024-05-09T07:35:36.312Z,12.00
2024-05-09T07:38:08.507Z,11.82
2024-05-09T07:40:36.952Z,10.63
2024-05-09T07:43:06.756Z,13.23
2024-05-09T07:52:32.577Z,9.55
2024-05-09T07:53:40.016Z,8.63
2024-05-09T07:56:12.156Z,12.27
2024-05-09T07:58:41.884Z,9.65
2024-05-09T08:01:08.814Z,7.22
2024-05-09T08:03:38.576Z,8.63
2024-05-09T08:06:05.740Z,13.73
2024-05-09T08:08:38.211Z,9.10
2024-05-09T08:11:06.485Z,11.43
2024-05-09T08:13:36.093Z,10.10
2024-05-09T08:16:02.968Z,9.55
2024-05-09T08:18:32.763Z,9.00
2024-05-09T08:21:00.157Z,8.38
2024-05-09T08:23:29.612Z,7.45
2024-05-09T08:25:59.093Z,7.93
2024-05-09T08:28:28.610Z,8.65
2024-05-09T08:30:57.085Z,9.10
2024-05-09T08:33:26.784Z,5.82
2024-05-09T08:35:53.677Z,8.50
2024-05-09T08:38:23.281Z,8.60
2024-05-09T08:40:50.714Z,11.52
2024-05-09T08:43:23.306Z,11.60
2024-05-09T08:45:51.820Z,10.18
2024-05-09T08:48:22.993Z,12.32
2024-05-09T08:50:54.688Z,13.30
2024-05-09T08:53:21.700Z,10.07
2024-05-09T08:55:52.386Z,11.20
2024-05-09T08:58:22.106Z,8.75
2024-05-09T09:00:51.804Z,8.45
2024-05-09T09:03:19.875Z,8.30
2024-05-09T09:05:55.668Z,7.80
2024-05-09T09:08:22.703Z,9.32
2024-05-09T09:11:03.450Z,9.43
2024-05-09T09:13:32.871Z,7.57
2024-05-09T09:16:03.159Z,7.03
2024-05-09T09:18:30.701Z,7.30
2024-05-09T09:21:00.330Z,8.27
2024-05-09T09:23:30.361Z,7.63
2024-05-09T09:26:01.277Z,7.38
2024-05-09T09:28:28.321Z,8.35
2024-05-09T09:31:03.564Z,7.47
2024-05-09T09:33:31.728Z,9.30
2024-05-09T09:36:02.122Z,9.80
2024-05-09T09:38:30.802Z,8.93
2024-05-09T09:41:00.764Z,11.10
2024-05-09T09:43:27.898Z,8.82
2024-05-09T09:46:00.221Z,9.05
2024-05-09T09:48:27.613Z,8.68
2024-05-09T09:50:57.683Z,10.27
2024-05-09T09:53:24.664Z,7.03
2024-05-09T09:55:55.960Z,6.70
2024-05-09T09:58:25.727Z,8.95
2024-05-09T10:00:55.410Z,12.48
2024-05-09T10:03:25.008Z,7.22
2024-05-09T10:05:54.801Z,6.25
2024-05-09T10:08:24.363Z,7.55
2024-05-09T10:10:57.286Z,7.47
2024-05-09T10:13:35.295Z,6.53
2024-05-09T10:16:12.442Z,4.80
2024-05-09T10:18:49.220Z,6.13
2024-05-09T10:21:21.028Z,6.38
2024-05-09T10:23:57.928Z,5.30
2024-05-09T10:26:33.460Z,5.93
2024-05-09T10:29:19.027Z,6.85
2024-05-09T10:31:46.909Z,6.45
2024-05-09T10:34:23.104Z,6.40
2024-05-09T10:36:53.983Z,5.38
2024-05-09T10:39:36.428Z,4.13
2024-05-09T10:42:04.021Z,5.32
2024-05-09T10:44:42.261Z,7.88
2024-05-09T10:47:11.070Z,6.03
2024-05-09T10:49:46.736Z,6.28
2024-05-09T10:52:13.636Z,9.02
2024-05-09T10:54:43.249Z,4.65
2024-05-09T10:57:10.044Z,7.78
2024-05-09T10:59:43.092Z,5.07
2024-05-09T11:02:10.910Z,9.35
2024-05-09T11:04:41.842Z,5.55
2024-05-09T11:07:12.416Z,7.40
2024-05-09T11:09:42.655Z,5.03
2024-05-09T11:12:09.690Z,4.80
2024-05-09T11:14:40.505Z,4.88
2024-05-09T11:17:08.392Z,5.60
2024-05-09T11:19:40.268Z,3.97
2024-05-09T11:24:39.675Z,5.60
2024-05-09T11:27:06.496Z,6.07
2024-05-09T11:29:44.772Z,7.05
2024-05-09T11:32:12.171Z,4.95
2024-05-09T11:34:42.224Z,5.75
2024-05-09T11:37:09.185Z,5.13
2024-05-09T11:39:44.492Z,5.18
2024-05-09T11:42:13.094Z,4.95
2024-05-09T11:44:42.571Z,4.50
2024-05-09T11:47:09.343Z,7.15
2024-05-09T11:49:38.751Z,4.82
2024-05-09T11:52:05.649Z,6.68
2024-05-09T11:54:35.230Z,6.25
2024-05-09T11:57:04.909Z,8.38
2024-05-09T11:59:34.243Z,6.15
2024-05-09T12:02:01.343Z,5.35
2024-05-09T12:04:30.915Z,5.35
2024-05-09T12:06:57.825Z,5.70
2024-05-09T12:09:27.349Z,5.03
2024-05-09T12:11:54.194Z,6.00
2024-05-09T12:14:26.316Z,4.10
2024-05-09T12:16:53.090Z,4.10
2024-05-09T12:19:22.697Z,6.43
2024-05-09T12:21:49.449Z,9.38
2024-05-09T12:24:18.938Z,6.80
2024-05-09T12:26:45.793Z,4.82
2024-05-09T12:29:15.105Z,5.00
2024-05-09T12:31:44.543Z,4.72
2024-05-09T12:34:14.209Z,4.80
2024-05-09T12:36:41.128Z,4.70
2024-05-09T12:39:11.301Z,5.72
2024-05-09T12:41:38.062Z,4.15
2024-05-09T12:44:07.622Z,3.67
2024-05-09T12:46:34.477Z,2.67
2024-05-09T12:49:06.748Z,4.20
2024-05-09T12:51:33.988Z,3.97
2024-05-09T12:54:03.853Z,3.35
2024-05-09T12:56:30.606Z,6.18
2024-05-09T12:58:59.961Z,3.45
2024-05-09T13:01:26.905Z,3.28
2024-05-09T13:03:56.555Z,3.67
2024-05-09T13:06:26.118Z,3.15
2024-05-09T13:08:55.525Z,3.20
2024-05-09T13:11:22.317Z,3.63
2024-05-09T13:13:51.674Z,3.08
2024-05-09T13:16:18.594Z,7.30
2024-05-09T13:18:48.213Z,2.88
2024-05-09T13:21:15.016Z,2.70
2024-05-09T13:23:47.037Z,2.88
2024-05-09T13:26:13.813Z,3.22
2024-05-09T13:28:43.199Z,3.55
2024-05-09T13:31:09.993Z,2.17
2024-05-09T13:33:39.554Z,2.35
2024-05-09T13:36:06.962Z,5.15
2024-05-09T13:38:36.321Z,3.70
2024-05-09T13:41:05.669Z,2.85
2024-05-09T13:43:35.192Z,5.93
2024-05-09T13:46:02.091Z,9.38
2024-05-09T13:48:31.633Z,6.22
2024-05-09T13:50:58.478Z,2.88
2024-05-09T13:53:27.869Z,3.20
2024-05-09T13:55:54.581Z,2.90
2024-05-09T13:58:26.639Z,3.92
2024-05-09T14:00:53.598Z,2.88
2024-05-09T14:03:23.101Z,2.95
2024-05-09T14:05:51.243Z,3.08
2024-05-09T14:08:22.512Z,3.08
2024-05-09T14:10:49.999Z,3.63
2024-05-09T14:13:19.944Z,2.33
2024-05-09T14:15:49.664Z,3.28
2024-05-09T14:18:19.291Z,2.45
2024-05-09T14:20:46.052Z,2.60
2024-05-09T14:23:15.483Z,4.00
2024-05-09T14:25:43.588Z,2.20
2024-05-09T14:28:14.880Z,3.20
2024-05-09T14:30:42.221Z,2.17
2024-05-09T14:33:16.352Z,2.60
2024-05-09T14:35:43.173Z,2.92
2024-05-09T14:38:12.572Z,4.65
2024-05-09T14:40:43.201Z,6.13
2024-05-09T14:43:14.535Z,3.40
2024-05-09T14:45:42.003Z,3.13
2024-05-09T14:48:14.652Z,2.63
2024-05-09T14:50:41.955Z,2.42
2024-05-09T14:53:12.029Z,3.97
2024-05-09T14:55:40.893Z,2.33
2024-05-09T14:58:12.487Z,5.15
2024-05-09T15:00:44.771Z,9.17
2024-05-09T15:03:21.695Z,2.58
2024-05-09T15:05:49.330Z,4.25
2024-05-09T15:08:19.938Z,4.28
2024-05-09T15:10:47.300Z,3.03
2024-05-09T15:13:17.388Z,4.55
2024-05-09T15:15:44.573Z,10.85
2024-05-09T15:18:14.378Z,5.28
2024-05-09T15:20:45.837Z,5.43
2024-05-09T15:23:15.384Z,2.47
2024-05-09T15:25:44.282Z,2.92
2024-05-09T15:28:13.845Z,5.60
2024-05-09T15:30:44.138Z,16.10
2024-05-09T15:33:15.883Z,5.88
2024-05-09T15:35:46.784Z,2.97
2024-05-09T15:38:18.376Z,5.05
2024-05-09T15:40:45.319Z,6.55
2024-05-09T15:43:14.907Z,3.28
2024-05-09T15:45:42.143Z,6.53
2024-05-09T15:48:12.027Z,2.60
2024-05-09T15:50:41.426Z,6.30
2024-05-09T15:53:15.226Z,3.30
2024-05-09T15:55:42.486Z,4.18
2024-05-09T15:58:12.428Z,2.92
2024-05-09T16:00:42.533Z,4.53
2024-05-09T16:03:14.861Z,4.05
2024-05-09T16:05:42.950Z,3.28
2024-05-09T16:08:15.782Z,2.50
2024-05-09T16:10:45.982Z,2.55
2024-05-09T16:13:17.350Z,2.13
2024-05-09T16:15:44.868Z,4.73
2024-05-09T16:18:14.729Z,4.10
2024-05-09T16:20:43.449Z,2.55
2024-05-09T16:23:17.129Z,2.83
2024-05-09T16:25:46.256Z,3.05
2024-05-09T16:28:16.101Z,5.60
2024-05-09T16:30:42.939Z,3.10
2024-05-09T16:33:13.743Z,2.45
2024-05-09T16:35:40.849Z,4.07
2024-05-09T16:38:10.278Z,4.40
2024-05-09T16:40:41.295Z,3.55
2024-05-09T16:43:12.157Z,4.53
2024-05-09T16:45:40.573Z,2.60
2024-05-09T16:48:11.381Z,5.13
2024-05-09T16:50:38.389Z,2.78
2024-05-09T16:53:08.481Z,3.30
2024-05-09T16:55:35.713Z,4.32
2024-05-09T16:58:08.855Z,3.50
2024-05-09T17:00:41.151Z,3.15
2024-05-09T17:03:14.684Z,8.02
2024-05-09T17:05:43.073Z,4.45
2024-05-09T17:08:12.582Z,4.00
2024-05-09T17:10:39.437Z,2.92
2024-05-09T17:13:11.527Z,4.47
2024-05-09T17:15:41.083Z,3.50
2024-05-09T17:18:11.508Z,4.72
2024-05-09T17:20:40.844Z,5.55
2024-05-09T17:23:13.285Z,2.97
2024-05-09T17:25:43.784Z,3.05
2024-05-09T17:28:13.138Z,3.17
2024-05-09T17:30:43.193Z,4.57
2024-05-09T17:33:11.287Z,3.58
2024-05-09T17:35:41.854Z,3.83
2024-05-09T17:38:08.814Z,5.10
2024-05-09T17:40:39.236Z,4.13
2024-05-09T17:43:08.465Z,6.63
2024-05-09T17:45:42.467Z,3.35
2024-05-09T17:48:10.419Z,5.63
2024-05-09T17:50:41.628Z,4.05
2024-05-09T17:53:09.016Z,4.65
2024-05-09T17:55:38.832Z,5.65
2024-05-09T17:58:05.992Z,6.22
2024-05-09T18:00:40.009Z,5.10
2024-05-09T18:03:12.887Z,5.78
2024-05-09T18:05:44.435Z,4.80
2024-05-09T18:08:11.905Z,3.83
2024-05-09T18:10:43.343Z,4.57
2024-05-09T18:13:10.807Z,6.05
2024-05-09T18:15:40.804Z,6.20
2024-05-09T18:18:08.939Z,6.20
2024-05-09T18:20:45.308Z,4.63
2024-05-09T18:23:14.177Z,4.47
2024-05-09T18:25:44.530Z,4.75
2024-05-09T18:28:11.489Z,6.05
2024-05-09T18:30:41.606Z,4.03
2024-05-09T18:33:09.398Z,5.28
2024-05-09T18:35:41.638Z,7.57
2024-05-09T18:38:08.899Z,4.63
2024-05-09T18:40:39.720Z,3.45
2024-05-09T18:45:38.999Z,3.88
2024-05-09T18:48:07.211Z,3.90
2024-05-09T18:50:39.773Z,4.45
2024-05-09T18:53:11.913Z,7.68
2024-05-09T18:55:42.470Z,5.15
2024-05-09T18:58:09.485Z,4.63
2024-05-09T19:00:41.562Z,7.10
2024-05-09T19:03:13.299Z,3.28
2024-05-09T19:05:45.469Z,7.25
2024-05-09T19:08:15.939Z,4.05
2024-05-09T19:10:46.135Z,5.30
2024-05-09T19:13:14.285Z,46.63
2024-05-09T19:15:44.812Z,8.45
2024-05-09T19:18:12.575Z,4.90
2024-05-09T19:20:42.483Z,5.75
2024-05-09T19:23:10.953Z,10.75
2024-05-09T19:25:43.258Z,6.88
2024-05-09T19:28:10.101Z,3.88
2024-05-09T19:30:42.147Z,5.45
2024-05-09T19:33:10.902Z,4.53
2024-05-09T19:35:41.667Z,3.97
2024-05-09T19:38:08.483Z,3.50
2024-05-09T19:40:37.966Z,3.65
2024-05-09T19:43:07.561Z,3.22
2024-05-09T19:45:37.396Z,6.63
2024-05-09T19:48:05.038Z,5.65
2024-05-09T19:50:41.637Z,5.95
2024-05-09T19:53:11.459Z,17.95
2024-05-09T19:55:41.212Z,7.95
2024-05-09T19:58:11.404Z,5.82
2024-05-09T20:00:43.925Z,5.95
2024-05-09T20:03:12.312Z,3.70
2024-05-09T20:05:42.542Z,6.78
2024-05-09T20:08:11.717Z,5.93
2024-05-09T20:10:41.164Z,8.05
2024-05-09T20:13:10.604Z,7.30
2024-05-09T20:15:40.375Z,18.02
2024-05-09T20:18:07.660Z,11.00
2024-05-09T20:20:41.475Z,4.10
2024-05-09T20:23:10.433Z,7.60
2024-05-09T20:25:39.820Z,5.05
2024-05-09T20:28:06.960Z,8.93
2024-05-09T20:30:39.449Z,7.28
2024-05-09T20:33:07.735Z,4.32
2024-05-09T20:35:38.422Z,6.95
2024-05-09T20:38:05.460Z,5.40
2024-05-09T20:40:37.979Z,5.57
2024-05-09T20:43:06.836Z,6.55
2024-05-09T20:45:39.985Z,3.80
2024-05-09T20:48:08.436Z,5.57
2024-05-09T20:50:41.231Z,4.82
2024-05-09T20:53:09.725Z,10.63
2024-05-09T20:55:39.243Z,15.38
2024-05-09T20:58:06.074Z,9.48
2024-05-09T21:00:40.232Z,5.75
2024-05-09T21:03:14.175Z,3.80
2024-05-09T21:05:44.900Z,5.50
2024-05-09T21:08:11.792Z,5.80
2024-05-09T21:10:41.355Z,6.53
2024-05-09T21:13:08.371Z,5.93
2024-05-09T21:15:37.912Z,7.55
2024-05-09T21:18:05.295Z,5.78
2024-05-09T21:20:37.695Z,7.47
2024-05-09T21:23:04.617Z,4.25
2024-05-09T21:25:34.086Z,6.53
2024-05-09T21:28:01.065Z,9.73
2024-05-09T21:30:38.738Z,5.70
2024-05-09T21:33:10.556Z,7.18
2024-05-09T21:35:44.620Z,5.60
2024-05-09T21:38:13.523Z,5.50
2024-05-09T21:40:43.305Z,6.57
2024-05-09T21:43:10.154Z,5.45
2024-05-09T21:45:39.660Z,6.93
2024-05-09T21:48:07.325Z,9.82
2024-05-09T21:50:40.735Z,4.72
2024-05-09T21:53:12.612Z,8.32
2024-05-09T21:55:42.846Z,7.25
2024-05-09T21:58:10.638Z,7.20
2024-05-09T22:00:42.977Z,7.32
2024-05-09T22:03:11.122Z,11.88
2024-05-09T22:05:44.562Z,6.38
2024-05-09T22:08:14.432Z,5.43
2024-05-09T22:10:44.057Z,5.90
2024-05-09T22:13:11.010Z,5.07
2024-05-09T22:15:41.263Z,6.15
2024-05-09T22:18:09.740Z,8.35
2024-05-09T22:20:44.288Z,4.97
2024-05-09T22:23:15.676Z,9.45
2024-05-09T22:25:45.104Z,12.18
2024-05-09T22:28:14.123Z,7.35
2024-05-09T22:30:46.132Z,6.38
2024-05-09T22:33:13.523Z,6.60
2024-05-09T22:35:43.238Z,10.75
2024-05-09T22:38:10.090Z,8.50
2024-05-09T22:40:47.845Z,5.03
2024-05-09T22:43:17.133Z,9.05
2024-05-09T22:45:46.782Z,6.95
2024-05-09T22:48:13.880Z,5.65
2024-05-09T22:50:43.615Z,5.88
2024-05-09T22:53:10.392Z,5.78
2024-05-09T22:55:42.535Z,6.10
2024-05-09T23:00:38.694Z,8.10
2024-05-09T23:03:06.200Z,8.30
2024-05-09T23:05:35.719Z,8.30
2024-05-09T23:08:02.642Z,10.15
2024-05-09T23:10:36.432Z,6.57
2024-05-09T23:13:08.143Z,6.03
2024-05-09T23:15:38.758Z,5.75
2024-05-09T23:18:06.210Z,8.85
2024-05-09T23:20:38.942Z,6.30
2024-05-09T23:23:07.185Z,10.82
2024-05-09T23:25:36.795Z,9.68
2024-05-09T23:28:04.233Z,8.75
2024-05-09T23:30:39.589Z,7.35
2024-05-09T23:33:08.502Z,7.55
2024-05-09T23:35:38.236Z,8.00
2024-05-09T23:38:05.131Z,8.63
2024-05-09T23:40:38.842Z,8.43
2024-05-09T23:43:07.849Z,8.30
2024-05-09T23:45:40.078Z,7.25
2024-05-09T23:48:07.790Z,7.57
2024-05-09T23:50:39.219Z,7.68
2024-05-09T23:53:08.595Z,7.50
2024-05-09T23:55:39.179Z,6.10
2024-05-09T23:58:06.361Z,9.65
